sensor_id;sensor_type;location;lat;lon;timestamp;temperature;humidity
27779;DHT22;30234;48.090;11.464;2023-03-19T00:02:12;4.50;99.90
27779;DHT22;30234;48.090;11.464;2023-03-19T00:06:13;4.50;99.90
27779;DHT22;30234;48.090;11.464;2023-03-19T00:10:14;4.40;99.90
27779;DHT22;30234;48.090;11.464;2023-03-19T00:14:15;4.40;99.90
27779;DHT22;30234;48.090;11.464;2023-03-19T00:18:16;4.30;99.90
27779;DHT22;30234;48.090;11.464;2023-03-19T00:22:17;4.30;99.90
27779;DHT22;30234;48.090;11.464;2023-03-19T00:30:20;4.30;99.90
27779;DHT22;30234;48.090;11.464;2023-03-19T00:34:22;4.30;99.90
27779;DHT22;30234;48.090;11.464;2023-03-19T00:38:22;4.30;99.90
27779;DHT22;30234;48.090;11.464;2023-03-19T00:42:24;4.20;99.90
27779;DHT22;30234;48.090;11.464;2023-03-19T00:46:25;3.90;99.90
27779;DHT22;30234;48.090;11.464;2023-03-19T00:50:26;3.90;99.90
27779;DHT22;30234;48.090;11.464;2023-03-19T00:54:27;3.80;99.90
27779;DHT22;30234;48.090;11.464;2023-03-19T00:58:28;3.60;99.90
27779;DHT22;30234;48.090;11.464;2023-03-19T01:02:30;3.50;99.90
27779;DHT22;30234;48.090;11.464;2023-03-19T01:06:31;3.30;99.90
27779;DHT22;30234;48.090;11.464;2023-03-19T01:10:33;3.40;99.90
27779;DHT22;30234;48.090;11.464;2023-03-19T01:14:34;3.30;99.90
27779;DHT22;30234;48.090;11.464;2023-03-19T01:18:35;3.40;99.90
27779;DHT22;30234;48.090;11.464;2023-03-19T01:22:36;3.20;99.90
27779;DHT22;30234;48.090;11.464;2023-03-19T01:26:37;3.20;99.90
27779;DHT22;30234;48.090;11.464;2023-03-19T01:30:38;3.20;99.90
27779;DHT22;30234;48.090;11.464;2023-03-19T01:34:40;3.30;99.90
27779;DHT22;30234;48.090;11.464;2023-03-19T01:38:41;3.30;99.90
27779;DHT22;30234;48.090;11.464;2023-03-19T01:42:54;3.30;99.90
27779;DHT22;30234;48.090;11.464;2023-03-19T01:47:30;3.20;99.90
27779;DHT22;30234;48.090;11.464;2023-03-19T01:51:36;3.20;99.90
27779;DHT22;30234;48.090;11.464;2023-03-19T01:55:40;3.10;99.90
27779;DHT22;30234;48.090;11.464;2023-03-19T01:59:44;3.10;99.90
27779;DHT22;30234;48.090;11.464;2023-03-19T02:03:49;3.10;99.90
27779;DHT22;30234;48.090;11.464;2023-03-19T02:07:57;2.90;99.90
27779;DHT22;30234;48.090;11.464;2023-03-19T02:12:00;3.00;99.90
27779;DHT22;30234;48.090;11.464;2023-03-19T02:16:01;3.10;99.90
27779;DHT22;30234;48.090;11.464;2023-03-19T02:20:16;3.00;99.90
27779;DHT22;30234;48.090;11.464;2023-03-19T02:24:58;3.00;99.90
27779;DHT22;30234;48.090;11.464;2023-03-19T02:29:02;3.00;99.90
27779;DHT22;30234;48.090;11.464;2023-03-19T02:33:04;2.90;99.90
27779;DHT22;30234;48.090;11.464;2023-03-19T02:37:21;3.30;99.90
27779;DHT22;30234;48.090;11.464;2023-03-19T02:41:25;2.90;99.90
27779;DHT22;30234;48.090;11.464;2023-03-19T02:45:28;2.90;99.90
27779;DHT22;30234;48.090;11.464;2023-03-19T02:49:29;3.20;99.90
27779;DHT22;30234;48.090;11.464;2023-03-19T02:53:30;2.90;99.90
27779;DHT22;30234;48.090;11.464;2023-03-19T02:57:31;2.90;99.90
27779;DHT22;30234;48.090;11.464;2023-03-19T03:01:32;2.90;99.90
27779;DHT22;30234;48.090;11.464;2023-03-19T03:05:34;2.90;99.90
27779;DHT22;30234;48.090;11.464;2023-03-19T03:09:35;2.90;99.90
27779;DHT22;30234;48.090;11.464;2023-03-19T03:13:36;2.90;99.90
27779;DHT22;30234;48.090;11.464;2023-03-19T03:17:38;2.90;99.90
27779;DHT22;30234;48.090;11.464;2023-03-19T03:21:39;3.00;99.90
27779;DHT22;30234;48.090;11.464;2023-03-19T03:25:40;3.00;99.90
27779;DHT22;30234;48.090;11.464;2023-03-19T03:29:41;3.10;99.90
27779;DHT22;30234;48.090;11.464;2023-03-19T03:33:42;3.10;99.90
27779;DHT22;30234;48.090;11.464;2023-03-19T03:37:43;3.10;99.90
27779;DHT22;30234;48.090;11.464;2023-03-19T03:41:44;3.20;99.90
27779;DHT22;30234;48.090;11.464;2023-03-19T03:45:45;3.20;99.90
27779;DHT22;30234;48.090;11.464;2023-03-19T03:49:47;3.30;99.90
27779;DHT22;30234;48.090;11.464;2023-03-19T03:53:47;3.30;99.90
27779;DHT22;30234;48.090;11.464;2023-03-19T03:57:48;3.30;99.90
27779;DHT22;30234;48.090;11.464;2023-03-19T04:01:49;3.30;99.90
27779;DHT22;30234;48.090;11.464;2023-03-19T04:05:50;3.50;99.90
27779;DHT22;30234;48.090;11.464;2023-03-19T04:09:51;3.60;99.90
27779;DHT22;30234;48.090;11.464;2023-03-19T04:13:55;3.50;99.90
27779;DHT22;30234;48.090;11.464;2023-03-19T04:17:57;3.50;99.90
27779;DHT22;30234;48.090;11.464;2023-03-19T04:22:00;3.50;99.90
27779;DHT22;30234;48.090;11.464;2023-03-19T04:26:04;3.50;99.90
27779;DHT22;30234;48.090;11.464;2023-03-19T04:30:07;3.60;99.90
27779;DHT22;30234;48.090;11.464;2023-03-19T04:34:09;3.70;99.90
27779;DHT22;30234;48.090;11.464;2023-03-19T04:38:11;3.80;99.90
27779;DHT22;30234;48.090;11.464;2023-03-19T04:42:12;3.90;99.90
27779;DHT22;30234;48.090;11.464;2023-03-19T04:46:13;4.00;99.90
27779;DHT22;30234;48.090;11.464;2023-03-19T04:50:14;4.20;99.90
27779;DHT22;30234;48.090;11.464;2023-03-19T04:54:15;4.30;99.90
27779;DHT22;30234;48.090;11.464;2023-03-19T04:58:16;4.50;99.90
27779;DHT22;30234;48.090;11.464;2023-03-19T05:02:17;4.70;99.90
27779;DHT22;30234;48.090;11.464;2023-03-19T05:10:19;5.00;99.90
27779;DHT22;30234;48.090;11.464;2023-03-19T05:14:20;5.20;99.90
27779;DHT22;30234;48.090;11.464;2023-03-19T05:18:22;5.50;99.90
27779;DHT22;30234;48.090;11.464;2023-03-19T05:22:22;5.70;99.90
27779;DHT22;30234;48.090;11.464;2023-03-19T05:26:23;6.20;99.90
27779;DHT22;30234;48.090;11.464;2023-03-19T05:30:25;6.10;99.90
27779;DHT22;30234;48.090;11.464;2023-03-19T05:34:26;6.40;99.90
27779;DHT22;30234;48.090;11.464;2023-03-19T05:38:27;6.80;99.90
27779;DHT22;30234;48.090;11.464;2023-03-19T05:42:28;7.20;99.90
27779;DHT22;30234;48.090;11.464;2023-03-19T05:46:29;7.50;99.90
27779;DHT22;30234;48.090;11.464;2023-03-19T05:50:30;7.80;99.90
27779;DHT22;30234;48.090;11.464;2023-03-19T05:54:32;8.00;99.90
27779;DHT22;30234;48.090;11.464;2023-03-19T05:58:33;8.10;99.90
27779;DHT22;30234;48.090;11.464;2023-03-19T06:02:34;8.30;99.90
27779;DHT22;30234;48.090;11.464;2023-03-19T06:06:36;8.30;99.90
27779;DHT22;30234;48.090;11.464;2023-03-19T06:10:36;8.40;99.90
27779;DHT22;30234;48.090;11.464;2023-03-19T06:14:37;8.50;99.90
27779;DHT22;30234;48.090;11.464;2023-03-19T06:18:38;8.70;99.90
27779;DHT22;30234;48.090;11.464;2023-03-19T06:22:39;8.70;99.90
27779;DHT22;30234;48.090;11.464;2023-03-19T06:30:42;8.90;99.90
27779;DHT22;30234;48.090;11.464;2023-03-19T06:34:43;8.90;99.90
27779;DHT22;30234;48.090;11.464;2023-03-19T06:38:43;8.90;99.90
27779;DHT22;30234;48.090;11.464;2023-03-19T06:42:45;9.00;99.90
27779;DHT22;30234;48.090;11.464;2023-03-19T06:46:46;9.40;99.90
27779;DHT22;30234;48.090;11.464;2023-03-19T06:50:47;9.40;99.90
27779;DHT22;30234;48.090;11.464;2023-03-19T06:54:48;9.50;99.90
27779;DHT22;30234;48.090;11.464;2023-03-19T06:58:49;9.50;99.90
27779;DHT22;30234;48.090;11.464;2023-03-19T07:02:50;9.40;99.90
27779;DHT22;30234;48.090;11.464;2023-03-19T07:06:51;9.50;99.90
27779;DHT22;30234;48.090;11.464;2023-03-19T07:10:52;9.50;99.90
27779;DHT22;30234;48.090;11.464;2023-03-19T07:14:53;9.50;99.90
27779;DHT22;30234;48.090;11.464;2023-03-19T07:18:57;9.50;99.90
27779;DHT22;30234;48.090;11.464;2023-03-19T07:22:58;9.60;99.90
27779;DHT22;30234;48.090;11.464;2023-03-19T07:26:59;9.80;99.90
27779;DHT22;30234;48.090;11.464;2023-03-19T07:31:00;9.90;99.90
27779;DHT22;30234;48.090;11.464;2023-03-19T07:35:01;10.00;99.90
27779;DHT22;30234;48.090;11.464;2023-03-19T07:39:02;10.10;99.90
27779;DHT22;30234;48.090;11.464;2023-03-19T07:43:03;10.20;99.90
27779;DHT22;30234;48.090;11.464;2023-03-19T07:47:04;10.10;99.90
27779;DHT22;30234;48.090;11.464;2023-03-19T07:51:05;10.20;99.90
27779;DHT22;30234;48.090;11.464;2023-03-19T07:55:06;10.20;99.90
27779;DHT22;30234;48.090;11.464;2023-03-19T07:59:08;10.20;99.90
27779;DHT22;30234;48.090;11.464;2023-03-19T08:03:08;10.30;99.90
27779;DHT22;30234;48.090;11.464;2023-03-19T08:07:10;10.30;99.90
27779;DHT22;30234;48.090;11.464;2023-03-19T08:11:12;10.50;99.90
27779;DHT22;30234;48.090;11.464;2023-03-19T08:15:13;10.70;99.90
27779;DHT22;30234;48.090;11.464;2023-03-19T08:19:14;10.80;99.90
27779;DHT22;30234;48.090;11.464;2023-03-19T08:23:16;10.90;99.90
27779;DHT22;30234;48.090;11.464;2023-03-19T08:27:17;11.10;99.90
27779;DHT22;30234;48.090;11.464;2023-03-19T08:31:17;10.90;99.90
27779;DHT22;30234;48.090;11.464;2023-03-19T08:35:18;11.00;99.90
27779;DHT22;30234;48.090;11.464;2023-03-19T08:39:19;10.90;99.90
27779;DHT22;30234;48.090;11.464;2023-03-19T08:43:20;11.10;99.90
27779;DHT22;30234;48.090;11.464;2023-03-19T08:47:21;11.20;99.90
27779;DHT22;30234;48.090;11.464;2023-03-19T08:51:24;11.40;99.90
27779;DHT22;30234;48.090;11.464;2023-03-19T08:55:25;11.60;99.90
27779;DHT22;30234;48.090;11.464;2023-03-19T08:59:27;11.80;99.90
27779;DHT22;30234;48.090;11.464;2023-03-19T09:03:28;12.00;99.90
27779;DHT22;30234;48.090;11.464;2023-03-19T09:07:29;12.40;99.90
27779;DHT22;30234;48.090;11.464;2023-03-19T09:11:29;12.40;99.90
27779;DHT22;30234;48.090;11.464;2023-03-19T09:15:31;12.40;99.90
27779;DHT22;30234;48.090;11.464;2023-03-19T09:19:32;11.90;99.90
27779;DHT22;30234;48.090;11.464;2023-03-19T09:23:33;11.90;99.90
27779;DHT22;30234;48.090;11.464;2023-03-19T09:27:34;11.00;99.90
27779;DHT22;30234;48.090;11.464;2023-03-19T09:31:36;13.00;99.90
27779;DHT22;30234;48.090;11.464;2023-03-19T09:35:37;12.20;99.90
27779;DHT22;30234;48.090;11.464;2023-03-19T09:39:39;12.20;99.90
27779;DHT22;30234;48.090;11.464;2023-03-19T09:48:00;11.80;99.90
27779;DHT22;30234;48.090;11.464;2023-03-19T09:57:07;11.60;99.90
27779;DHT22;30234;48.090;11.464;2023-03-19T10:01:26;11.60;99.90
27779;DHT22;30234;48.090;11.464;2023-03-19T10:05:53;11.50;99.90
27779;DHT22;30234;48.090;11.464;2023-03-19T10:10:15;11.90;99.90
27779;DHT22;30234;48.090;11.464;2023-03-19T10:18:54;13.30;99.90
27779;DHT22;30234;48.090;11.464;2023-03-19T10:27:43;14.20;99.90
27779;DHT22;30234;48.090;11.464;2023-03-19T10:31:50;14.10;99.90
27779;DHT22;30234;48.090;11.464;2023-03-19T10:36:04;14.10;99.90
27779;DHT22;30234;48.090;11.464;2023-03-19T10:40:33;13.80;99.90
27779;DHT22;30234;48.090;11.464;2023-03-19T10:44:47;14.00;99.90
27779;DHT22;30234;48.090;11.464;2023-03-19T10:48:50;14.20;99.90
27779;DHT22;30234;48.090;11.464;2023-03-19T10:57:28;14.40;99.90
27779;DHT22;30234;48.090;11.464;2023-03-19T11:01:37;15.70;99.90
27779;DHT22;30234;48.090;11.464;2023-03-19T11:05:39;16.30;99.90
27779;DHT22;30234;48.090;11.464;2023-03-19T11:09:48;17.00;99.90
27779;DHT22;30234;48.090;11.464;2023-03-19T11:13:50;17.60;99.90
27779;DHT22;30234;48.090;11.464;2023-03-19T11:17:59;17.70;99.90
27779;DHT22;30234;48.090;11.464;2023-03-19T11:22:15;17.90;99.90
27779;DHT22;30234;48.090;11.464;2023-03-19T11:26:19;18.30;99.90
27779;DHT22;30234;48.090;11.464;2023-03-19T11:30:37;18.40;99.90
27779;DHT22;30234;48.090;11.464;2023-03-19T11:35:02;18.30;99.90
27779;DHT22;30234;48.090;11.464;2023-03-19T11:56:47;16.90;99.90
27779;DHT22;30234;48.090;11.464;2023-03-19T12:00:52;16.70;99.90
27779;DHT22;30234;48.090;11.464;2023-03-19T12:14:16;16.90;99.90
27779;DHT22;30234;48.090;11.464;2023-03-19T12:27:25;23.40;91.70
27779;DHT22;30234;48.090;11.464;2023-03-19T12:31:47;25.00;77.70
27779;DHT22;30234;48.090;11.464;2023-03-19T12:36:30;24.10;71.00
27779;DHT22;30234;48.090;11.464;2023-03-19T12:45:02;21.30;73.90
27779;DHT22;30234;48.090;11.464;2023-03-19T12:49:13;19.80;77.60
27779;DHT22;30234;48.090;11.464;2023-03-19T12:53:27;18.70;82.80
27779;DHT22;30234;48.090;11.464;2023-03-19T12:57:40;17.50;85.70
27779;DHT22;30234;48.090;11.464;2023-03-19T13:01:50;16.90;87.30
27779;DHT22;30234;48.090;11.464;2023-03-19T13:10:20;16.20;92.10
27779;DHT22;30234;48.090;11.464;2023-03-19T13:14:33;16.50;91.10
27779;DHT22;30234;48.090;11.464;2023-03-19T13:18:45;16.00;91.30
27779;DHT22;30234;48.090;11.464;2023-03-19T13:22:54;15.70;93.50
27779;DHT22;30234;48.090;11.464;2023-03-19T13:26:59;15.00;94.00
27779;DHT22;30234;48.090;11.464;2023-03-19T13:31:16;14.60;95.40
27779;DHT22;30234;48.090;11.464;2023-03-19T13:35:34;14.50;96.70
27779;DHT22;30234;48.090;11.464;2023-03-19T13:39:50;14.20;98.10
27779;DHT22;30234;48.090;11.464;2023-03-19T13:43:52;13.80;98.70
27779;DHT22;30234;48.090;11.464;2023-03-19T13:47:56;13.70;99.90
27779;DHT22;30234;48.090;11.464;2023-03-19T13:56:26;13.80;99.90
27779;DHT22;30234;48.090;11.464;2023-03-19T14:04:57;14.20;99.90
27779;DHT22;30234;48.090;11.464;2023-03-19T14:09:42;15.00;99.90
27779;DHT22;30234;48.090;11.464;2023-03-19T14:13:47;16.00;97.60
27779;DHT22;30234;48.090;11.464;2023-03-19T14:26:38;18.20;92.00
27779;DHT22;30234;48.090;11.464;2023-03-19T14:30:37;17.70;91.50
27779;DHT22;30234;48.090;11.464;2023-03-19T14:34:41;16.30;93.00
27779;DHT22;30234;48.090;11.464;2023-03-19T14:39:02;17.90;91.40
27779;DHT22;30234;48.090;11.464;2023-03-19T14:48:24;20.30;82.20
27779;DHT22;30234;48.090;11.464;2023-03-19T14:53:12;22.00;76.00
27779;DHT22;30234;48.090;11.464;2023-03-19T14:57:17;20.10;77.50
27779;DHT22;30234;48.090;11.464;2023-03-19T15:01:21;18.10;82.50
27779;DHT22;30234;48.090;11.464;2023-03-19T15:05:29;17.60;85.50
27779;DHT22;30234;48.090;11.464;2023-03-19T15:09:36;17.10;85.40
27779;DHT22;30234;48.090;11.464;2023-03-19T15:18:00;18.50;82.30
27779;DHT22;30234;48.090;11.464;2023-03-19T15:22:26;19.00;79.50
27779;DHT22;30234;48.090;11.464;2023-03-19T15:26:35;18.30;81.40
27779;DHT22;30234;48.090;11.464;2023-03-19T15:30:37;16.70;84.60
27779;DHT22;30234;48.090;11.464;2023-03-19T15:34:38;15.60;87.20
27779;DHT22;30234;48.090;11.464;2023-03-19T15:39:02;15.80;88.40
27779;DHT22;30234;48.090;11.464;2023-03-19T15:43:04;15.90;87.80
27779;DHT22;30234;48.090;11.464;2023-03-19T15:47:10;15.60;89.20
27779;DHT22;30234;48.090;11.464;2023-03-19T15:51:16;15.10;90.20
27779;DHT22;30234;48.090;11.464;2023-03-19T15:55:19;15.00;91.00
27779;DHT22;30234;48.090;11.464;2023-03-19T15:59:26;15.00;91.00
27779;DHT22;30234;48.090;11.464;2023-03-19T16:03:38;14.70;91.30
27779;DHT22;30234;48.090;11.464;2023-03-19T16:07:41;14.30;92.40
27779;DHT22;30234;48.090;11.464;2023-03-19T16:11:44;14.00;93.00
27779;DHT22;30234;48.090;11.464;2023-03-19T16:20:03;13.70;93.20
27779;DHT22;30234;48.090;11.464;2023-03-19T16:28:19;13.30;95.10
27779;DHT22;30234;48.090;11.464;2023-03-19T16:32:28;13.10;95.60
27779;DHT22;30234;48.090;11.464;2023-03-19T16:36:31;12.80;97.60
27779;DHT22;30234;48.090;11.464;2023-03-19T16:40:43;12.70;98.20
27779;DHT22;30234;48.090;11.464;2023-03-19T16:44:46;12.60;98.30
27779;DHT22;30234;48.090;11.464;2023-03-19T16:48:47;12.50;99.30
27779;DHT22;30234;48.090;11.464;2023-03-19T16:52:49;12.40;99.60
27779;DHT22;30234;48.090;11.464;2023-03-19T16:56:50;12.20;99.90
27779;DHT22;30234;48.090;11.464;2023-03-19T17:00:53;12.10;99.90
27779;DHT22;30234;48.090;11.464;2023-03-19T17:04:54;11.90;99.90
27779;DHT22;30234;48.090;11.464;2023-03-19T17:08:55;11.70;99.90
27779;DHT22;30234;48.090;11.464;2023-03-19T17:12:56;11.50;99.90
27779;DHT22;30234;48.090;11.464;2023-03-19T17:16:58;11.30;99.90
27779;DHT22;30234;48.090;11.464;2023-03-19T17:21:10;11.10;99.90
27779;DHT22;30234;48.090;11.464;2023-03-19T17:25:14;10.90;99.90
27779;DHT22;30234;48.090;11.464;2023-03-19T17:29:18;10.70;99.90
27779;DHT22;30234;48.090;11.464;2023-03-19T17:33:28;10.50;99.90
27779;DHT22;30234;48.090;11.464;2023-03-19T17:37:30;10.40;99.90
27779;DHT22;30234;48.090;11.464;2023-03-19T17:41:31;10.30;99.90
27779;DHT22;30234;48.090;11.464;2023-03-19T17:45:33;10.20;99.90
27779;DHT22;30234;48.090;11.464;2023-03-19T17:49:34;10.10;99.90
27779;DHT22;30234;48.090;11.464;2023-03-19T17:53:36;9.90;99.90
27779;DHT22;30234;48.090;11.464;2023-03-19T17:57:37;9.70;99.90
27779;DHT22;30234;48.090;11.464;2023-03-19T18:01:40;9.60;99.90
27779;DHT22;30234;48.090;11.464;2023-03-19T18:05:43;9.40;99.90
27779;DHT22;30234;48.090;11.464;2023-03-19T18:09:44;9.10;99.90
27779;DHT22;30234;48.090;11.464;2023-03-19T18:13:45;8.80;99.90
27779;DHT22;30234;48.090;11.464;2023-03-19T18:17:51;8.60;99.90
27779;DHT22;30234;48.090;11.464;2023-03-19T18:21:54;8.30;99.90
27779;DHT22;30234;48.090;11.464;2023-03-19T18:25:55;8.00;99.90
27779;DHT22;30234;48.090;11.464;2023-03-19T18:29:56;7.80;99.90
27779;DHT22;30234;48.090;11.464;2023-03-19T18:33:59;7.60;99.90
27779;DHT22;30234;48.090;11.464;2023-03-19T18:38:03;7.50;99.90
27779;DHT22;30234;48.090;11.464;2023-03-19T18:42:11;7.40;99.90
27779;DHT22;30234;48.090;11.464;2023-03-19T18:46:18;7.40;99.90
27779;DHT22;30234;48.090;11.464;2023-03-19T18:50:24;7.40;99.90
27779;DHT22;30234;48.090;11.464;2023-03-19T18:54:29;7.40;99.90
27779;DHT22;30234;48.090;11.464;2023-03-19T18:58:30;7.30;99.90
27779;DHT22;30234;48.090;11.464;2023-03-19T19:02:33;7.40;99.90
27779;DHT22;30234;48.090;11.464;2023-03-19T19:06:34;7.60;99.90
27779;DHT22;30234;48.090;11.464;2023-03-19T19:10:38;7.70;99.90
27779;DHT22;30234;48.090;11.464;2023-03-19T19:14:39;7.90;99.90
27779;DHT22;30234;48.090;11.464;2023-03-19T19:18:41;7.90;99.90
27779;DHT22;30234;48.090;11.464;2023-03-19T19:22:42;7.90;99.90
27779;DHT22;30234;48.090;11.464;2023-03-19T19:26:44;7.80;99.90
27779;DHT22;30234;48.090;11.464;2023-03-19T19:30:47;7.80;99.90
27779;DHT22;30234;48.090;11.464;2023-03-19T19:34:49;7.70;99.90
27779;DHT22;30234;48.090;11.464;2023-03-19T19:38:51;7.70;99.90
27779;DHT22;30234;48.090;11.464;2023-03-19T19:42:52;7.90;99.90
27779;DHT22;30234;48.090;11.464;2023-03-19T19:46:53;8.10;99.90
27779;DHT22;30234;48.090;11.464;2023-03-19T19:50:55;8.40;99.90
27779;DHT22;30234;48.090;11.464;2023-03-19T19:54:56;8.70;99.90
27779;DHT22;30234;48.090;11.464;2023-03-19T19:58:57;9.00;99.90
27779;DHT22;30234;48.090;11.464;2023-03-19T20:02:59;9.30;99.90
27779;DHT22;30234;48.090;11.464;2023-03-19T20:07:00;9.40;99.90
27779;DHT22;30234;48.090;11.464;2023-03-19T20:11:02;9.60;99.90
27779;DHT22;30234;48.090;11.464;2023-03-19T20:15:20;9.70;99.90
27779;DHT22;30234;48.090;11.464;2023-03-19T20:19:23;9.80;99.90
27779;DHT22;30234;48.090;11.464;2023-03-19T20:23:24;9.80;99.90
27779;DHT22;30234;48.090;11.464;2023-03-19T20:27:30;9.80;99.90
27779;DHT22;30234;48.090;11.464;2023-03-19T20:31:31;9.80;99.90
27779;DHT22;30234;48.090;11.464;2023-03-19T20:35:35;10.00;99.90
27779;DHT22;30234;48.090;11.464;2023-03-19T20:39:36;10.00;99.90
27779;DHT22;30234;48.090;11.464;2023-03-19T20:43:37;9.90;99.90
27779;DHT22;30234;48.090;11.464;2023-03-19T20:47:38;9.80;99.90
27779;DHT22;30234;48.090;11.464;2023-03-19T20:51:40;9.60;99.90
27779;DHT22;30234;48.090;11.464;2023-03-19T20:55:42;9.40;99.90
27779;DHT22;30234;48.090;11.464;2023-03-19T20:59:44;9.10;99.90
27779;DHT22;30234;48.090;11.464;2023-03-19T21:03:46;8.90;99.90
27779;DHT22;30234;48.090;11.464;2023-03-19T21:07:49;8.70;99.90
27779;DHT22;30234;48.090;11.464;2023-03-19T21:11:51;8.60;99.90
27779;DHT22;30234;48.090;11.464;2023-03-19T21:15:52;8.50;99.90
27779;DHT22;30234;48.090;11.464;2023-03-19T21:19:54;8.40;99.90
27779;DHT22;30234;48.090;11.464;2023-03-19T21:23:59;8.40;99.90
27779;DHT22;30234;48.090;11.464;2023-03-19T21:28:12;8.40;99.90
27779;DHT22;30234;48.090;11.464;2023-03-19T21:32:35;8.40;99.90
27779;DHT22;30234;48.090;11.464;2023-03-19T21:36:36;8.40;99.90
27779;DHT22;30234;48.090;11.464;2023-03-19T21:40:37;8.50;99.90
27779;DHT22;30234;48.090;11.464;2023-03-19T21:44:38;8.50;99.90
27779;DHT22;30234;48.090;11.464;2023-03-19T21:48:40;8.40;99.90
27779;DHT22;30234;48.090;11.464;2023-03-19T21:52:43;8.50;99.90
27779;DHT22;30234;48.090;11.464;2023-03-19T21:56:44;8.50;99.90
27779;DHT22;30234;48.090;11.464;2023-03-19T22:00:45;8.50;99.90
27779;DHT22;30234;48.090;11.464;2023-03-19T22:04:46;8.50;99.90
27779;DHT22;30234;48.090;11.464;2023-03-19T22:08:47;8.50;99.90
27779;DHT22;30234;48.090;11.464;2023-03-19T22:12:49;8.50;99.90
27779;DHT22;30234;48.090;11.464;2023-03-19T22:16:52;8.40;99.90
27779;DHT22;30234;48.090;11.464;2023-03-19T22:20:54;8.50;99.90
27779;DHT22;30234;48.090;11.464;2023-03-19T22:24:55;8.50;99.90
27779;DHT22;30234;48.090;11.464;2023-03-19T22:29:02;8.60;99.90
27779;DHT22;30234;48.090;11.464;2023-03-19T22:37:25;8.50;99.90
27779;DHT22;30234;48.090;11.464;2023-03-19T22:41:34;8.50;99.90
27779;DHT22;30234;48.090;11.464;2023-03-19T22:45:36;8.50;99.90
27779;DHT22;30234;48.090;11.464;2023-03-19T22:49:37;8.40;99.90
27779;DHT22;30234;48.090;11.464;2023-03-19T22:53:38;8.40;99.90
27779;DHT22;30234;48.090;11.464;2023-03-19T22:57:39;8.30;99.90
27779;DHT22;30234;48.090;11.464;2023-03-19T23:01:43;8.20;99.90
27779;DHT22;30234;48.090;11.464;2023-03-19T23:05:57;8.20;99.90
27779;DHT22;30234;48.090;11.464;2023-03-19T23:10:00;8.20;99.90
27779;DHT22;30234;48.090;11.464;2023-03-19T23:14:01;8.20;99.90
27779;DHT22;30234;48.090;11.464;2023-03-19T23:18:03;8.20;99.90
27779;DHT22;30234;48.090;11.464;2023-03-19T23:22:12;8.20;99.90
27779;DHT22;30234;48.090;11.464;2023-03-19T23:26:28;8.20;99.90
27779;DHT22;30234;48.090;11.464;2023-03-19T23:30:32;8.10;99.90
27779;DHT22;30234;48.090;11.464;2023-03-19T23:34:33;8.00;99.90
27779;DHT22;30234;48.090;11.464;2023-03-19T23:38:34;8.00;99.90
27779;DHT22;30234;48.090;11.464;2023-03-19T23:42:36;8.10;99.90
27779;DHT22;30234;48.090;11.464;2023-03-19T23:46:38;8.10;99.90
27779;DHT22;30234;48.090;11.464;2023-03-19T23:50:40;8.10;99.90
27779;DHT22;30234;48.090;11.464;2023-03-19T23:54:41;8.10;99.90
27779;DHT22;30234;48.090;11.464;2023-03-19T23:58:42;8.10;99.90
